sensor_id;sensor_type;location;lat;lon;timestamp;P1;durP1;ratioP1;P2;durP2;ratioP2
65558;SDS011;52203;51.998;5.140;2023-06-14T00:01:20;6.03;;;3.35;;
65558;SDS011;52203;51.998;5.140;2023-06-14T00:03:47;5.30;;;3.13;;
65558;SDS011;52203;51.998;5.140;2023-06-14T00:06:13;5.68;;;3.10;;
65558;SDS011;52203;51.998;5.140;2023-06-14T00:08:39;5.65;;;3.50;;
65558;SDS011;52203;51.998;5.140;2023-06-14T00:11:05;8.52;;;3.47;;
65558;SDS011;52203;51.998;5.140;2023-06-14T00:13:32;6.55;;;3.45;;
65558;SDS011;52203;51.998;5.140;2023-06-14T00:15:58;6.05;;;3.40;;
65558;SDS011;52203;51.998;5.140;2023-06-14T00:18:23;7.20;;;3.58;;
65558;SDS011;52203;51.998;5.140;2023-06-14T00:20:50;5.20;;;3.28;;
65558;SDS011;52203;51.998;5.140;2023-06-14T00:23:16;5.97;;;3.50;;
65558;SDS011;52203;51.998;5.140;2023-06-14T00:25:42;6.85;;;2.90;;
65558;SDS011;52203;51.998;5.140;2023-06-14T00:28:07;5.78;;;3.22;;
65558;SDS011;52203;51.998;5.140;2023-06-14T00:30:33;5.80;;;2.97;;
65558;SDS011;52203;51.998;5.140;2023-06-14T00:32:58;4.50;;;2.88;;
65558;SDS011;52203;51.998;5.140;2023-06-14T00:35:24;7.65;;;3.30;;
65558;SDS011;52203;51.998;5.140;2023-06-14T00:37:50;6.78;;;2.95;;
65558;SDS011;52203;51.998;5.140;2023-06-14T00:40:16;7.88;;;3.47;;
65558;SDS011;52203;51.998;5.140;2023-06-14T00:42:41;6.40;;;3.25;;
65558;SDS011;52203;51.998;5.140;2023-06-14T00:45:07;9.02;;;3.42;;
65558;SDS011;52203;51.998;5.140;2023-06-14T00:47:33;6.50;;;3.35;;
65558;SDS011;52203;51.998;5.140;2023-06-14T00:50:00;5.65;;;3.38;;
65558;SDS011;52203;51.998;5.140;2023-06-14T00:52:26;7.97;;;3.20;;
65558;SDS011;52203;51.998;5.140;2023-06-14T00:54:52;4.90;;;3.20;;
65558;SDS011;52203;51.998;5.140;2023-06-14T00:57:18;8.27;;;3.20;;
65558;SDS011;52203;51.998;5.140;2023-06-14T00:59:47;6.90;;;3.45;;
65558;SDS011;52203;51.998;5.140;2023-06-14T01:02:14;6.00;;;2.92;;
65558;SDS011;52203;51.998;5.140;2023-06-14T01:04:40;7.55;;;3.15;;
65558;SDS011;52203;51.998;5.140;2023-06-14T01:09:58;6.07;;;3.30;;
65558;SDS011;52203;51.998;5.140;2023-06-14T01:12:35;5.22;;;3.20;;
65558;SDS011;52203;51.998;5.140;2023-06-14T01:15:22;7.00;;;3.28;;
65558;SDS011;52203;51.998;5.140;2023-06-14T01:17:51;6.95;;;3.20;;
65558;SDS011;52203;51.998;5.140;2023-06-14T01:20:19;6.85;;;3.30;;
65558;SDS011;52203;51.998;5.140;2023-06-14T01:22:53;7.35;;;3.25;;
65558;SDS011;52203;51.998;5.140;2023-06-14T01:25:22;7.95;;;3.20;;
65558;SDS011;52203;51.998;5.140;2023-06-14T01:27:49;6.22;;;3.42;;
65558;SDS011;52203;51.998;5.140;2023-06-14T01:30:16;8.10;;;3.72;;
65558;SDS011;52203;51.998;5.140;2023-06-14T01:32:43;6.30;;;3.40;;
65558;SDS011;52203;51.998;5.140;2023-06-14T01:35:09;6.35;;;3.97;;
65558;SDS011;52203;51.998;5.140;2023-06-14T01:37:35;5.18;;;2.97;;
65558;SDS011;52203;51.998;5.140;2023-06-14T01:40:02;6.03;;;3.35;;
65558;SDS011;52203;51.998;5.140;2023-06-14T01:42:31;5.97;;;3.17;;
65558;SDS011;52203;51.998;5.140;2023-06-14T01:45:00;8.45;;;3.10;;
65558;SDS011;52203;51.998;5.140;2023-06-14T01:47:27;8.75;;;3.70;;
65558;SDS011;52203;51.998;5.140;2023-06-14T01:49:52;6.75;;;3.53;;
65558;SDS011;52203;51.998;5.140;2023-06-14T01:52:18;6.93;;;3.60;;
65558;SDS011;52203;51.998;5.140;2023-06-14T01:54:44;6.78;;;3.30;;
65558;SDS011;52203;51.998;5.140;2023-06-14T01:57:11;8.15;;;3.60;;
65558;SDS011;52203;51.998;5.140;2023-06-14T01:59:36;7.93;;;3.72;;
65558;SDS011;52203;51.998;5.140;2023-06-14T02:02:02;6.38;;;3.20;;
65558;SDS011;52203;51.998;5.140;2023-06-14T02:04:28;5.60;;;3.03;;
65558;SDS011;52203;51.998;5.140;2023-06-14T02:06:54;7.55;;;3.58;;
65558;SDS011;52203;51.998;5.140;2023-06-14T02:09:19;5.18;;;3.30;;
65558;SDS011;52203;51.998;5.140;2023-06-14T02:11:45;5.60;;;3.45;;
65558;SDS011;52203;51.998;5.140;2023-06-14T02:14:11;7.78;;;3.55;;
65558;SDS011;52203;51.998;5.140;2023-06-14T02:16:37;6.47;;;3.20;;
65558;SDS011;52203;51.998;5.140;2023-06-14T02:19:04;4.82;;;3.22;;
65558;SDS011;52203;51.998;5.140;2023-06-14T02:21:29;7.15;;;3.38;;
65558;SDS011;52203;51.998;5.140;2023-06-14T02:23:55;5.70;;;3.25;;
65558;SDS011;52203;51.998;5.140;2023-06-14T02:26:21;6.35;;;2.92;;
65558;SDS011;52203;51.998;5.140;2023-06-14T02:28:47;7.63;;;3.25;;
65558;SDS011;52203;51.998;5.140;2023-06-14T02:31:13;9.55;;;3.40;;
65558;SDS011;52203;51.998;5.140;2023-06-14T02:33:39;6.47;;;3.53;;
65558;SDS011;52203;51.998;5.140;2023-06-14T02:36:05;9.77;;;3.22;;
65558;SDS011;52203;51.998;5.140;2023-06-14T02:38:31;6.85;;;3.60;;
65558;SDS011;52203;51.998;5.140;2023-06-14T02:40:57;7.13;;;3.55;;
65558;SDS011;52203;51.998;5.140;2023-06-14T02:43:24;7.45;;;3.20;;
65558;SDS011;52203;51.998;5.140;2023-06-14T02:45:49;7.05;;;3.05;;
65558;SDS011;52203;51.998;5.140;2023-06-14T02:48:15;5.47;;;3.13;;
65558;SDS011;52203;51.998;5.140;2023-06-14T02:50:41;8.40;;;3.33;;
65558;SDS011;52203;51.998;5.140;2023-06-14T02:53:07;5.45;;;3.15;;
65558;SDS011;52203;51.998;5.140;2023-06-14T02:55:32;7.93;;;3.35;;
65558;SDS011;52203;51.998;5.140;2023-06-14T02:57:58;9.88;;;3.58;;
65558;SDS011;52203;51.998;5.140;2023-06-14T03:00:24;6.43;;;3.30;;
65558;SDS011;52203;51.998;5.140;2023-06-14T03:02:49;6.05;;;3.20;;
65558;SDS011;52203;51.998;5.140;2023-06-14T03:05:16;6.55;;;3.47;;
65558;SDS011;52203;51.998;5.140;2023-06-14T03:07:46;6.50;;;3.30;;
65558;SDS011;52203;51.998;5.140;2023-06-14T03:10:12;6.25;;;3.60;;
65558;SDS011;52203;51.998;5.140;2023-06-14T03:12:38;8.20;;;3.50;;
65558;SDS011;52203;51.998;5.140;2023-06-14T03:15:04;6.30;;;3.30;;
65558;SDS011;52203;51.998;5.140;2023-06-14T03:17:30;6.10;;;3.38;;
65558;SDS011;52203;51.998;5.140;2023-06-14T03:19:59;8.80;;;3.90;;
65558;SDS011;52203;51.998;5.140;2023-06-14T03:22:25;6.68;;;3.30;;
65558;SDS011;52203;51.998;5.140;2023-06-14T03:24:51;8.25;;;3.60;;
65558;SDS011;52203;51.998;5.140;2023-06-14T03:27:17;6.00;;;2.90;;
65558;SDS011;52203;51.998;5.140;2023-06-14T03:29:43;7.43;;;3.22;;
65558;SDS011;52203;51.998;5.140;2023-06-14T03:32:09;6.63;;;2.67;;
65558;SDS011;52203;51.998;5.140;2023-06-14T03:34:35;5.85;;;3.30;;
65558;SDS011;52203;51.998;5.140;2023-06-14T03:37:00;5.55;;;3.35;;
65558;SDS011;52203;51.998;5.140;2023-06-14T03:39:26;7.07;;;3.15;;
65558;SDS011;52203;51.998;5.140;2023-06-14T03:41:51;4.88;;;3.22;;
65558;SDS011;52203;51.998;5.140;2023-06-14T03:44:17;6.07;;;3.38;;
65558;SDS011;52203;51.998;5.140;2023-06-14T03:46:43;7.20;;;3.35;;
65558;SDS011;52203;51.998;5.140;2023-06-14T03:49:13;5.28;;;3.05;;
65558;SDS011;52203;51.998;5.140;2023-06-14T03:51:38;6.47;;;3.05;;
65558;SDS011;52203;51.998;5.140;2023-06-14T03:54:05;7.30;;;3.13;;
65558;SDS011;52203;51.998;5.140;2023-06-14T03:56:31;6.38;;;3.00;;
65558;SDS011;52203;51.998;5.140;2023-06-14T03:58:56;7.07;;;3.00;;
65558;SDS011;52203;51.998;5.140;2023-06-14T04:01:22;6.03;;;3.20;;
65558;SDS011;52203;51.998;5.140;2023-06-14T04:03:52;4.55;;;2.95;;
65558;SDS011;52203;51.998;5.140;2023-06-14T04:06:18;8.43;;;3.42;;
65558;SDS011;52203;51.998;5.140;2023-06-14T04:08:44;7.90;;;3.28;;
65558;SDS011;52203;51.998;5.140;2023-06-14T04:11:10;5.22;;;3.17;;
65558;SDS011;52203;51.998;5.140;2023-06-14T04:13:36;5.90;;;3.13;;
65558;SDS011;52203;51.998;5.140;2023-06-14T04:16:04;7.00;;;3.10;;
65558;SDS011;52203;51.998;5.140;2023-06-14T04:18:29;6.80;;;3.10;;
65558;SDS011;52203;51.998;5.140;2023-06-14T04:20:55;7.28;;;3.20;;
65558;SDS011;52203;51.998;5.140;2023-06-14T04:23:21;5.13;;;3.20;;
65558;SDS011;52203;51.998;5.140;2023-06-14T04:25:47;6.63;;;3.20;;
65558;SDS011;52203;51.998;5.140;2023-06-14T04:28:14;6.10;;;3.38;;
65558;SDS011;52203;51.998;5.140;2023-06-14T04:30:41;5.18;;;2.90;;
65558;SDS011;52203;51.998;5.140;2023-06-14T04:33:07;6.75;;;3.00;;
65558;SDS011;52203;51.998;5.140;2023-06-14T04:35:35;5.97;;;3.15;;
65558;SDS011;52203;51.998;5.140;2023-06-14T04:38:02;7.22;;;3.10;;
65558;SDS011;52203;51.998;5.140;2023-06-14T04:40:30;6.60;;;2.88;;
65558;SDS011;52203;51.998;5.140;2023-06-14T04:42:56;6.40;;;3.60;;
65558;SDS011;52203;51.998;5.140;2023-06-14T04:45:22;6.53;;;3.10;;
65558;SDS011;52203;51.998;5.140;2023-06-14T04:47:48;8.35;;;2.85;;
65558;SDS011;52203;51.998;5.140;2023-06-14T04:50:16;5.60;;;3.17;;
65558;SDS011;52203;51.998;5.140;2023-06-14T04:52:42;6.68;;;3.22;;
65558;SDS011;52203;51.998;5.140;2023-06-14T04:55:08;9.30;;;3.45;;
65558;SDS011;52203;51.998;5.140;2023-06-14T04:57:33;7.30;;;3.45;;
65558;SDS011;52203;51.998;5.140;2023-06-14T05:00:00;10.75;;;4.05;;
65558;SDS011;52203;51.998;5.140;2023-06-14T05:02:25;6.32;;;2.75;;
65558;SDS011;52203;51.998;5.140;2023-06-14T05:04:52;6.85;;;3.00;;
65558;SDS011;52203;51.998;5.140;2023-06-14T05:07:19;6.88;;;2.88;;
65558;SDS011;52203;51.998;5.140;2023-06-14T05:09:45;5.22;;;2.95;;
65558;SDS011;52203;51.998;5.140;2023-06-14T05:12:11;5.80;;;3.38;;
65558;SDS011;52203;51.998;5.140;2023-06-14T05:14:36;5.63;;;3.35;;
65558;SDS011;52203;51.998;5.140;2023-06-14T05:17:02;6.30;;;3.17;;
65558;SDS011;52203;51.998;5.140;2023-06-14T05:19:28;8.60;;;3.50;;
65558;SDS011;52203;51.998;5.140;2023-06-14T05:21:53;5.13;;;3.00;;
65558;SDS011;52203;51.998;5.140;2023-06-14T05:24:19;7.60;;;3.47;;
65558;SDS011;52203;51.998;5.140;2023-06-14T05:26:45;6.45;;;3.40;;
65558;SDS011;52203;51.998;5.140;2023-06-14T05:29:11;4.50;;;2.90;;
65558;SDS011;52203;51.998;5.140;2023-06-14T05:31:36;7.85;;;3.28;;
65558;SDS011;52203;51.998;5.140;2023-06-14T05:34:02;8.15;;;3.38;;
65558;SDS011;52203;51.998;5.140;2023-06-14T05:36:28;5.68;;;2.92;;
65558;SDS011;52203;51.998;5.140;2023-06-14T05:38:54;8.68;;;3.30;;
65558;SDS011;52203;51.998;5.140;2023-06-14T05:41:25;7.57;;;3.20;;
65558;SDS011;52203;51.998;5.140;2023-06-14T05:43:51;6.88;;;3.35;;
65558;SDS011;52203;51.998;5.140;2023-06-14T05:46:17;8.35;;;3.45;;
65558;SDS011;52203;51.998;5.140;2023-06-14T05:48:47;5.57;;;3.70;;
65558;SDS011;52203;51.998;5.140;2023-06-14T05:51:13;7.25;;;3.40;;
65558;SDS011;52203;51.998;5.140;2023-06-14T05:53:39;5.57;;;3.53;;
65558;SDS011;52203;51.998;5.140;2023-06-14T05:56:05;8.13;;;3.30;;
65558;SDS011;52203;51.998;5.140;2023-06-14T05:58:30;6.38;;;3.30;;
65558;SDS011;52203;51.998;5.140;2023-06-14T06:00:56;5.82;;;3.38;;
65558;SDS011;52203;51.998;5.140;2023-06-14T06:03:22;10.43;;;3.53;;
65558;SDS011;52203;51.998;5.140;2023-06-14T06:05:48;7.60;;;3.72;;
65558;SDS011;52203;51.998;5.140;2023-06-14T06:08:13;7.32;;;3.65;;
65558;SDS011;52203;51.998;5.140;2023-06-14T06:10:39;7.55;;;3.50;;
65558;SDS011;52203;51.998;5.140;2023-06-14T06:13:05;5.65;;;3.53;;
65558;SDS011;52203;51.998;5.140;2023-06-14T06:15:30;6.43;;;3.75;;
65558;SDS011;52203;51.998;5.140;2023-06-14T06:17:56;7.28;;;3.17;;
65558;SDS011;52203;51.998;5.140;2023-06-14T06:20:22;5.57;;;3.10;;
65558;SDS011;52203;51.998;5.140;2023-06-14T06:22:52;7.32;;;3.10;;
65558;SDS011;52203;51.998;5.140;2023-06-14T06:25:18;7.10;;;3.55;;
65558;SDS011;52203;51.998;5.140;2023-06-14T06:27:44;6.00;;;3.40;;
65558;SDS011;52203;51.998;5.140;2023-06-14T06:30:10;6.55;;;3.67;;
65558;SDS011;52203;51.998;5.140;2023-06-14T06:32:36;7.32;;;3.47;;
65558;SDS011;52203;51.998;5.140;2023-06-14T06:35:02;5.63;;;3.40;;
65558;SDS011;52203;51.998;5.140;2023-06-14T06:37:31;8.65;;;3.53;;
65558;SDS011;52203;51.998;5.140;2023-06-14T06:39:56;8.13;;;3.38;;
65558;SDS011;52203;51.998;5.140;2023-06-14T06:42:22;5.30;;;3.42;;
65558;SDS011;52203;51.998;5.140;2023-06-14T06:44:47;4.38;;;2.88;;
65558;SDS011;52203;51.998;5.140;2023-06-14T06:47:13;8.25;;;3.35;;
65558;SDS011;52203;51.998;5.140;2023-06-14T06:49:39;8.32;;;3.05;;
65558;SDS011;52203;51.998;5.140;2023-06-14T06:52:05;7.15;;;3.47;;
65558;SDS011;52203;51.998;5.140;2023-06-14T06:54:31;7.47;;;3.30;;
65558;SDS011;52203;51.998;5.140;2023-06-14T06:56:57;7.05;;;2.92;;
65558;SDS011;52203;51.998;5.140;2023-06-14T06:59:23;8.68;;;3.03;;
65558;SDS011;52203;51.998;5.140;2023-06-14T07:01:49;5.15;;;2.92;;
65558;SDS011;52203;51.998;5.140;2023-06-14T07:04:14;6.03;;;3.22;;
65558;SDS011;52203;51.998;5.140;2023-06-14T07:06:41;5.63;;;3.30;;
65558;SDS011;52203;51.998;5.140;2023-06-14T07:09:08;7.07;;;2.97;;
65558;SDS011;52203;51.998;5.140;2023-06-14T07:11:40;6.57;;;3.22;;
65558;SDS011;52203;51.998;5.140;2023-06-14T07:14:07;6.60;;;2.90;;
65558;SDS011;52203;51.998;5.140;2023-06-14T07:16:33;5.82;;;3.78;;
65558;SDS011;52203;51.998;5.140;2023-06-14T07:18:58;6.32;;;3.00;;
65558;SDS011;52203;51.998;5.140;2023-06-14T07:21:25;6.45;;;3.25;;
65558;SDS011;52203;51.998;5.140;2023-06-14T07:23:51;4.97;;;3.22;;
65558;SDS011;52203;51.998;5.140;2023-06-14T07:26:18;4.95;;;3.13;;
65558;SDS011;52203;51.998;5.140;2023-06-14T07:28:43;6.57;;;3.13;;
65558;SDS011;52203;51.998;5.140;2023-06-14T07:31:12;4.93;;;3.10;;
65558;SDS011;52203;51.998;5.140;2023-06-14T07:33:39;6.43;;;3.20;;
65558;SDS011;52203;51.998;5.140;2023-06-14T07:36:05;4.93;;;3.28;;
65558;SDS011;52203;51.998;5.140;2023-06-14T07:38:31;6.25;;;3.10;;
65558;SDS011;52203;51.998;5.140;2023-06-14T07:40:56;5.00;;;3.38;;
65558;SDS011;52203;51.998;5.140;2023-06-14T07:43:22;6.55;;;3.60;;
65558;SDS011;52203;51.998;5.140;2023-06-14T07:45:47;8.60;;;3.50;;
65558;SDS011;52203;51.998;5.140;2023-06-14T07:48:13;5.78;;;3.17;;
65558;SDS011;52203;51.998;5.140;2023-06-14T07:50:39;6.03;;;2.70;;
65558;SDS011;52203;51.998;5.140;2023-06-14T07:53:04;5.28;;;3.10;;
65558;SDS011;52203;51.998;5.140;2023-06-14T07:55:30;8.52;;;3.10;;
65558;SDS011;52203;51.998;5.140;2023-06-14T07:57:57;7.65;;;3.60;;
65558;SDS011;52203;51.998;5.140;2023-06-14T08:00:23;6.00;;;3.42;;
65558;SDS011;52203;51.998;5.140;2023-06-14T08:02:49;6.05;;;3.17;;
65558;SDS011;52203;51.998;5.140;2023-06-14T08:05:16;5.95;;;3.22;;
65558;SDS011;52203;51.998;5.140;2023-06-14T08:07:42;8.20;;;3.53;;
65558;SDS011;52203;51.998;5.140;2023-06-14T08:10:07;5.80;;;2.90;;
65558;SDS011;52203;51.998;5.140;2023-06-14T08:12:33;5.40;;;3.05;;
65558;SDS011;52203;51.998;5.140;2023-06-14T08:14:59;5.85;;;3.00;;
65558;SDS011;52203;51.998;5.140;2023-06-14T08:17:25;4.00;;;2.70;;
65558;SDS011;52203;51.998;5.140;2023-06-14T08:19:51;3.95;;;2.97;;
65558;SDS011;52203;51.998;5.140;2023-06-14T08:22:19;8.98;;;2.80;;
65558;SDS011;52203;51.998;5.140;2023-06-14T08:24:46;4.72;;;2.78;;
65558;SDS011;52203;51.998;5.140;2023-06-14T08:27:12;10.65;;;2.88;;
65558;SDS011;52203;51.998;5.140;2023-06-14T08:29:38;3.20;;;2.40;;
65558;SDS011;52203;51.998;5.140;2023-06-14T08:32:05;5.15;;;2.85;;
65558;SDS011;52203;51.998;5.140;2023-06-14T08:34:31;4.60;;;2.30;;
65558;SDS011;52203;51.998;5.140;2023-06-14T08:36:57;5.75;;;2.55;;
65558;SDS011;52203;51.998;5.140;2023-06-14T08:39:22;3.70;;;2.30;;
65558;SDS011;52203;51.998;5.140;2023-06-14T08:41:48;4.63;;;2.10;;
65558;SDS011;52203;51.998;5.140;2023-06-14T08:44:18;8.35;;;2.53;;
65558;SDS011;52203;51.998;5.140;2023-06-14T08:46:43;6.32;;;2.83;;
65558;SDS011;52203;51.998;5.140;2023-06-14T08:49:12;3.50;;;2.30;;
65558;SDS011;52203;51.998;5.140;2023-06-14T08:51:39;11.02;;;2.50;;
65558;SDS011;52203;51.998;5.140;2023-06-14T08:54:05;3.50;;;2.20;;
65558;SDS011;52203;51.998;5.140;2023-06-14T08:56:31;3.33;;;2.35;;
65558;SDS011;52203;51.998;5.140;2023-06-14T08:58:59;3.70;;;2.30;;
65558;SDS011;52203;51.998;5.140;2023-06-14T09:01:28;6.40;;;2.25;;
65558;SDS011;52203;51.998;5.140;2023-06-14T09:03:53;5.32;;;2.22;;
65558;SDS011;52203;51.998;5.140;2023-06-14T09:06:22;3.78;;;2.25;;
65558;SDS011;52203;51.998;5.140;2023-06-14T09:08:49;6.63;;;2.38;;
65558;SDS011;52203;51.998;5.140;2023-06-14T09:11:16;3.92;;;1.92;;
65558;SDS011;52203;51.998;5.140;2023-06-14T09:13:44;4.78;;;2.45;;
65558;SDS011;52203;51.998;5.140;2023-06-14T09:16:10;5.43;;;2.30;;
65558;SDS011;52203;51.998;5.140;2023-06-14T09:18:37;4.53;;;2.10;;
65558;SDS011;52203;51.998;5.140;2023-06-14T09:21:08;3.33;;;2.00;;
65558;SDS011;52203;51.998;5.140;2023-06-14T09:23:37;6.15;;;2.30;;
65558;SDS011;52203;51.998;5.140;2023-06-14T09:26:10;4.47;;;2.25;;
65558;SDS011;52203;51.998;5.140;2023-06-14T09:28:36;4.65;;;1.80;;
65558;SDS011;52203;51.998;5.140;2023-06-14T09:31:07;3.80;;;2.03;;
65558;SDS011;52203;51.998;5.140;2023-06-14T09:33:34;5.47;;;2.10;;
65558;SDS011;52203;51.998;5.140;2023-06-14T09:35:59;3.67;;;1.90;;
65558;SDS011;52203;51.998;5.140;2023-06-14T09:38:25;3.97;;;1.60;;
65558;SDS011;52203;51.998;5.140;2023-06-14T09:40:51;2.85;;;1.80;;
65558;SDS011;52203;51.998;5.140;2023-06-14T09:43:17;4.30;;;1.77;;
65558;SDS011;52203;51.998;5.140;2023-06-14T09:45:44;3.60;;;2.03;;
65558;SDS011;52203;51.998;5.140;2023-06-14T09:48:13;3.95;;;1.80;;
65558;SDS011;52203;51.998;5.140;2023-06-14T09:50:44;4.07;;;2.08;;
65558;SDS011;52203;51.998;5.140;2023-06-14T09:53:11;3.35;;;1.83;;
65558;SDS011;52203;51.998;5.140;2023-06-14T09:55:38;4.72;;;1.75;;
65558;SDS011;52203;51.998;5.140;2023-06-14T09:58:06;2.28;;;1.40;;
65558;SDS011;52203;51.998;5.140;2023-06-14T10:00:33;3.60;;;1.88;;
65558;SDS011;52203;51.998;5.140;2023-06-14T10:03:08;3.45;;;1.83;;
65558;SDS011;52203;51.998;5.140;2023-06-14T10:08:10;4.60;;;1.90;;
65558;SDS011;52203;51.998;5.140;2023-06-14T10:10:41;2.95;;;1.77;;
65558;SDS011;52203;51.998;5.140;2023-06-14T10:13:08;4.40;;;1.67;;
65558;SDS011;52203;51.998;5.140;2023-06-14T10:24:07;3.05;;;1.92;;
65558;SDS011;52203;51.998;5.140;2023-06-14T10:26:40;5.63;;;1.80;;
65558;SDS011;52203;51.998;5.140;2023-06-14T10:29:22;3.10;;;1.88;;
65558;SDS011;52203;51.998;5.140;2023-06-14T10:31:49;4.35;;;1.80;;
65558;SDS011;52203;51.998;5.140;2023-06-14T10:34:25;3.08;;;1.80;;
65558;SDS011;52203;51.998;5.140;2023-06-14T10:37:05;4.53;;;1.83;;
65558;SDS011;52203;51.998;5.140;2023-06-14T10:39:32;2.95;;;1.73;;
65558;SDS011;52203;51.998;5.140;2023-06-14T10:42:03;4.75;;;1.98;;
65558;SDS011;52203;51.998;5.140;2023-06-14T10:49:50;6.03;;;1.83;;
65558;SDS011;52203;51.998;5.140;2023-06-14T10:52:20;3.35;;;1.63;;
65558;SDS011;52203;51.998;5.140;2023-06-14T10:57:34;3.83;;;1.90;;
65558;SDS011;52203;51.998;5.140;2023-06-14T11:00:04;2.97;;;1.77;;
65558;SDS011;52203;51.998;5.140;2023-06-14T11:05:50;3.63;;;1.77;;
65558;SDS011;52203;51.998;5.140;2023-06-14T11:11:15;4.07;;;1.80;;
65558;SDS011;52203;51.998;5.140;2023-06-14T11:13:44;4.13;;;1.92;;
65558;SDS011;52203;51.998;5.140;2023-06-14T11:16:14;3.28;;;1.70;;
65558;SDS011;52203;51.998;5.140;2023-06-14T11:18:41;3.00;;;1.70;;
65558;SDS011;52203;51.998;5.140;2023-06-14T11:21:07;3.35;;;1.80;;
65558;SDS011;52203;51.998;5.140;2023-06-14T11:23:34;4.95;;;1.65;;
65558;SDS011;52203;51.998;5.140;2023-06-14T11:26:02;5.28;;;1.67;;
65558;SDS011;52203;51.998;5.140;2023-06-14T11:28:39;3.42;;;1.70;;
65558;SDS011;52203;51.998;5.140;2023-06-14T11:31:06;7.93;;;1.67;;
65558;SDS011;52203;51.998;5.140;2023-06-14T11:33:32;3.33;;;1.80;;
65558;SDS011;52203;51.998;5.140;2023-06-14T11:35:58;2.95;;;1.58;;
65558;SDS011;52203;51.998;5.140;2023-06-14T11:38:24;5.03;;;1.75;;
65558;SDS011;52203;51.998;5.140;2023-06-14T11:40:50;2.90;;;1.60;;
65558;SDS011;52203;51.998;5.140;2023-06-14T11:43:16;3.40;;;2.25;;
65558;SDS011;52203;51.998;5.140;2023-06-14T11:45:42;3.20;;;1.70;;
65558;SDS011;52203;51.998;5.140;2023-06-14T11:48:07;4.18;;;1.70;;
65558;SDS011;52203;51.998;5.140;2023-06-14T11:50:33;2.83;;;1.65;;
65558;SDS011;52203;51.998;5.140;2023-06-14T11:53:03;3.95;;;1.80;;
65558;SDS011;52203;51.998;5.140;2023-06-14T11:55:32;3.42;;;1.67;;
65558;SDS011;52203;51.998;5.140;2023-06-14T11:58:04;3.55;;;1.60;;
65558;SDS011;52203;51.998;5.140;2023-06-14T12:00:30;8.52;;;2.15;;
65558;SDS011;52203;51.998;5.140;2023-06-14T12:02:56;2.75;;;1.65;;
65558;SDS011;52203;51.998;5.140;2023-06-14T12:05:22;4.45;;;1.73;;
65558;SDS011;52203;51.998;5.140;2023-06-14T12:07:49;4.07;;;1.98;;
65558;SDS011;52203;51.998;5.140;2023-06-14T12:10:15;4.00;;;1.80;;
65558;SDS011;52203;51.998;5.140;2023-06-14T12:12:41;4.03;;;1.75;;
65558;SDS011;52203;51.998;5.140;2023-06-14T12:15:07;5.20;;;1.98;;
65558;SDS011;52203;51.998;5.140;2023-06-14T12:17:37;4.30;;;1.90;;
65558;SDS011;52203;51.998;5.140;2023-06-14T12:20:07;3.80;;;1.80;;
65558;SDS011;52203;51.998;5.140;2023-06-14T12:22:51;6.60;;;1.77;;
65558;SDS011;52203;51.998;5.140;2023-06-14T12:25:27;5.18;;;2.00;;
65558;SDS011;52203;51.998;5.140;2023-06-14T12:27:58;3.30;;;1.90;;
65558;SDS011;52203;51.998;5.140;2023-06-14T12:30:24;5.22;;;1.98;;
65558;SDS011;52203;51.998;5.140;2023-06-14T12:32:50;3.72;;;1.90;;
65558;SDS011;52203;51.998;5.140;2023-06-14T12:35:16;3.85;;;1.80;;
65558;SDS011;52203;51.998;5.140;2023-06-14T12:37:43;6.18;;;2.03;;
65558;SDS011;52203;51.998;5.140;2023-06-14T12:40:09;3.58;;;1.60;;
65558;SDS011;52203;51.998;5.140;2023-06-14T12:42:36;5.13;;;2.05;;
65558;SDS011;52203;51.998;5.140;2023-06-14T12:45:02;6.47;;;2.30;;
65558;SDS011;52203;51.998;5.140;2023-06-14T12:47:27;3.95;;;2.00;;
65558;SDS011;52203;51.998;5.140;2023-06-14T12:49:53;3.80;;;1.75;;
65558;SDS011;52203;51.998;5.140;2023-06-14T12:52:18;3.28;;;1.83;;
65558;SDS011;52203;51.998;5.140;2023-06-14T12:54:44;2.95;;;2.05;;
65558;SDS011;52203;51.998;5.140;2023-06-14T12:57:10;7.05;;;1.80;;
65558;SDS011;52203;51.998;5.140;2023-06-14T12:59:36;4.45;;;1.77;;
65558;SDS011;52203;51.998;5.140;2023-06-14T13:02:11;2.65;;;1.70;;
65558;SDS011;52203;51.998;5.140;2023-06-14T13:04:41;3.47;;;1.60;;
65558;SDS011;52203;51.998;5.140;2023-06-14T13:07:08;3.35;;;1.60;;
65558;SDS011;52203;51.998;5.140;2023-06-14T13:09:33;2.35;;;1.45;;
65558;SDS011;52203;51.998;5.140;2023-06-14T13:11:59;4.65;;;1.63;;
65558;SDS011;52203;51.998;5.140;2023-06-14T13:14:25;3.67;;;1.60;;
65558;SDS011;52203;51.998;5.140;2023-06-14T13:16:51;5.60;;;1.65;;
65558;SDS011;52203;51.998;5.140;2023-06-14T13:19:16;4.25;;;1.55;;
65558;SDS011;52203;51.998;5.140;2023-06-14T13:21:42;5.63;;;1.50;;
65558;SDS011;52203;51.998;5.140;2023-06-14T13:24:07;3.53;;;1.63;;
65558;SDS011;52203;51.998;5.140;2023-06-14T13:26:33;2.97;;;1.60;;
65558;SDS011;52203;51.998;5.140;2023-06-14T13:28:59;4.93;;;1.73;;
65558;SDS011;52203;51.998;5.140;2023-06-14T13:31:24;3.60;;;1.67;;
65558;SDS011;52203;51.998;5.140;2023-06-14T13:33:50;4.18;;;2.00;;
65558;SDS011;52203;51.998;5.140;2023-06-14T13:36:15;4.68;;;1.70;;
65558;SDS011;52203;51.998;5.140;2023-06-14T13:38:41;3.03;;;1.70;;
65558;SDS011;52203;51.998;5.140;2023-06-14T13:41:07;4.15;;;1.63;;
65558;SDS011;52203;51.998;5.140;2023-06-14T13:43:32;3.75;;;1.60;;
65558;SDS011;52203;51.998;5.140;2023-06-14T13:45:58;5.43;;;1.65;;
65558;SDS011;52203;51.998;5.140;2023-06-14T13:48:23;4.45;;;2.00;;
65558;SDS011;52203;51.998;5.140;2023-06-14T13:50:49;2.90;;;1.40;;
65558;SDS011;52203;51.998;5.140;2023-06-14T13:53:15;6.03;;;1.85;;
65558;SDS011;52203;51.998;5.140;2023-06-14T13:55:40;4.65;;;1.60;;
65558;SDS011;52203;51.998;5.140;2023-06-14T13:58:06;3.95;;;1.70;;
65558;SDS011;52203;51.998;5.140;2023-06-14T14:00:31;3.13;;;1.70;;
65558;SDS011;52203;51.998;5.140;2023-06-14T14:02:57;3.10;;;1.60;;
65558;SDS011;52203;51.998;5.140;2023-06-14T14:05:24;4.53;;;1.85;;
65558;SDS011;52203;51.998;5.140;2023-06-14T14:07:54;3.70;;;1.60;;
65558;SDS011;52203;51.998;5.140;2023-06-14T14:10:21;4.47;;;2.05;;
65558;SDS011;52203;51.998;5.140;2023-06-14T14:12:48;2.38;;;1.52;;
65558;SDS011;52203;51.998;5.140;2023-06-14T14:15:14;5.70;;;2.22;;
65558;SDS011;52203;51.998;5.140;2023-06-14T14:17:39;3.40;;;1.80;;
65558;SDS011;52203;51.998;5.140;2023-06-14T14:20:06;4.82;;;2.25;;
65558;SDS011;52203;51.998;5.140;2023-06-14T14:22:32;2.90;;;1.63;;
65558;SDS011;52203;51.998;5.140;2023-06-14T14:24:58;4.40;;;1.92;;
65558;SDS011;52203;51.998;5.140;2023-06-14T14:27:23;4.53;;;1.88;;
65558;SDS011;52203;51.998;5.140;2023-06-14T14:29:49;6.10;;;1.73;;
65558;SDS011;52203;51.998;5.140;2023-06-14T14:32:14;4.35;;;1.60;;
65558;SDS011;52203;51.998;5.140;2023-06-14T14:34:40;5.05;;;2.05;;
65558;SDS011;52203;51.998;5.140;2023-06-14T14:37:06;4.15;;;1.50;;
65558;SDS011;52203;51.998;5.140;2023-06-14T14:39:31;4.60;;;1.98;;
65558;SDS011;52203;51.998;5.140;2023-06-14T14:41:57;5.07;;;1.80;;
65558;SDS011;52203;51.998;5.140;2023-06-14T14:44:23;4.57;;;1.85;;
65558;SDS011;52203;51.998;5.140;2023-06-14T14:46:48;2.95;;;1.63;;
65558;SDS011;52203;51.998;5.140;2023-06-14T14:49:14;4.95;;;1.70;;
65558;SDS011;52203;51.998;5.140;2023-06-14T14:51:39;3.28;;;1.75;;
65558;SDS011;52203;51.998;5.140;2023-06-14T14:54:05;3.83;;;1.80;;
65558;SDS011;52203;51.998;5.140;2023-06-14T14:56:31;2.45;;;1.45;;
65558;SDS011;52203;51.998;5.140;2023-06-14T14:58:57;4.07;;;1.85;;
65558;SDS011;52203;51.998;5.140;2023-06-14T15:01:22;3.72;;;2.03;;
65558;SDS011;52203;51.998;5.140;2023-06-14T15:03:48;7.15;;;1.95;;
65558;SDS011;52203;51.998;5.140;2023-06-14T15:06:13;2.92;;;1.70;;
65558;SDS011;52203;51.998;5.140;2023-06-14T15:08:39;4.30;;;1.85;;
65558;SDS011;52203;51.998;5.140;2023-06-14T15:11:05;2.88;;;1.65;;
65558;SDS011;52203;51.998;5.140;2023-06-14T15:13:30;4.60;;;1.80;;